sensor_id;sensor_type;location;lat;lon;timestamp;P1;durP1;ratioP1;P2;durP2;ratioP2
6131;SDS011;3097;42.692;23.278;2022-10-20T00:02:20;27.70;;;18.73;;
6131;SDS011;3097;42.692;23.278;2022-10-20T00:04:46;29.17;;;20.30;;
6131;SDS011;3097;42.692;23.278;2022-10-20T00:07:11;29.83;;;18.60;;
6131;SDS011;3097;42.692;23.278;2022-10-20T00:09:37;27.80;;;18.53;;
6131;SDS011;3097;42.692;23.278;2022-10-20T00:12:02;24.10;;;17.20;;
6131;SDS011;3097;42.692;23.278;2022-10-20T00:14:28;26.43;;;17.80;;
6131;SDS011;3097;42.692;23.278;2022-10-20T00:16:53;27.77;;;16.90;;
6131;SDS011;3097;42.692;23.278;2022-10-20T00:19:19;25.33;;;17.23;;
6131;SDS011;3097;42.692;23.278;2022-10-20T00:21:44;25.83;;;17.40;;
6131;SDS011;3097;42.692;23.278;2022-10-20T00:24:09;22.63;;;16.07;;
6131;SDS011;3097;42.692;23.278;2022-10-20T00:26:35;21.73;;;15.63;;
6131;SDS011;3097;42.692;23.278;2022-10-20T00:29:01;20.80;;;15.20;;
6131;SDS011;3097;42.692;23.278;2022-10-20T00:31:27;21.20;;;15.43;;
6131;SDS011;3097;42.692;23.278;2022-10-20T00:33:53;24.00;;;17.17;;
6131;SDS011;3097;42.692;23.278;2022-10-20T00:36:19;19.43;;;13.70;;
6131;SDS011;3097;42.692;23.278;2022-10-20T00:38:46;21.23;;;14.63;;
6131;SDS011;3097;42.692;23.278;2022-10-20T00:41:13;19.50;;;14.23;;
6131;SDS011;3097;42.692;23.278;2022-10-20T00:43:47;19.33;;;13.27;;
6131;SDS011;3097;42.692;23.278;2022-10-20T00:46:14;21.63;;;13.77;;
6131;SDS011;3097;42.692;23.278;2022-10-20T00:48:42;18.20;;;12.90;;
6131;SDS011;3097;42.692;23.278;2022-10-20T00:51:11;19.33;;;13.90;;
6131;SDS011;3097;42.692;23.278;2022-10-20T00:53:40;17.83;;;13.37;;
6131;SDS011;3097;42.692;23.278;2022-10-20T00:56:08;14.90;;;11.97;;
6131;SDS011;3097;42.692;23.278;2022-10-20T00:58:34;19.47;;;12.90;;
6131;SDS011;3097;42.692;23.278;2022-10-20T01:01:00;17.90;;;12.33;;
6131;SDS011;3097;42.692;23.278;2022-10-20T01:03:37;16.33;;;11.77;;
6131;SDS011;3097;42.692;23.278;2022-10-20T01:06:09;15.40;;;11.67;;
6131;SDS011;3097;42.692;23.278;2022-10-20T01:08:36;16.73;;;12.07;;
6131;SDS011;3097;42.692;23.278;2022-10-20T01:11:08;15.83;;;11.93;;
6131;SDS011;3097;42.692;23.278;2022-10-20T01:16:19;16.17;;;11.50;;
6131;SDS011;3097;42.692;23.278;2022-10-20T01:30:11;13.73;;;9.77;;
6131;SDS011;3097;42.692;23.278;2022-10-20T01:42:50;14.43;;;10.37;;
6131;SDS011;3097;42.692;23.278;2022-10-20T01:45:18;14.73;;;10.70;;
6131;SDS011;3097;42.692;23.278;2022-10-20T01:47:46;13.20;;;10.17;;
6131;SDS011;3097;42.692;23.278;2022-10-20T01:50:14;13.67;;;11.30;;
6131;SDS011;3097;42.692;23.278;2022-10-20T01:52:41;13.93;;;11.27;;
6131;SDS011;3097;42.692;23.278;2022-10-20T01:55:14;15.37;;;11.83;;
6131;SDS011;3097;42.692;23.278;2022-10-20T02:00:28;15.70;;;10.90;;
6131;SDS011;3097;42.692;23.278;2022-10-20T02:03:07;14.00;;;11.50;;
6131;SDS011;3097;42.692;23.278;2022-10-20T02:06:07;14.53;;;10.97;;
6131;SDS011;3097;42.692;23.278;2022-10-20T02:08:59;14.67;;;10.63;;
6131;SDS011;3097;42.692;23.278;2022-10-20T02:11:44;15.30;;;11.33;;
6131;SDS011;3097;42.692;23.278;2022-10-20T02:14:12;15.27;;;10.93;;
6131;SDS011;3097;42.692;23.278;2022-10-20T02:16:43;16.77;;;12.20;;
6131;SDS011;3097;42.692;23.278;2022-10-20T02:19:12;18.13;;;11.70;;
6131;SDS011;3097;42.692;23.278;2022-10-20T02:21:40;18.47;;;11.60;;
6131;SDS011;3097;42.692;23.278;2022-10-20T02:24:06;14.57;;;11.30;;
6131;SDS011;3097;42.692;23.278;2022-10-20T02:26:33;15.30;;;11.07;;
6131;SDS011;3097;42.692;23.278;2022-10-20T02:29:04;18.63;;;11.80;;
6131;SDS011;3097;42.692;23.278;2022-10-20T02:31:36;19.37;;;12.13;;
6131;SDS011;3097;42.692;23.278;2022-10-20T02:34:02;17.20;;;11.70;;
6131;SDS011;3097;42.692;23.278;2022-10-20T02:36:28;15.83;;;11.70;;
6131;SDS011;3097;42.692;23.278;2022-10-20T02:38:53;18.13;;;12.60;;
6131;SDS011;3097;42.692;23.278;2022-10-20T02:41:20;15.43;;;11.60;;
6131;SDS011;3097;42.692;23.278;2022-10-20T02:43:45;17.47;;;12.07;;
6131;SDS011;3097;42.692;23.278;2022-10-20T02:46:11;19.30;;;11.67;;
6131;SDS011;3097;42.692;23.278;2022-10-20T02:48:37;16.20;;;12.13;;
6131;SDS011;3097;42.692;23.278;2022-10-20T02:51:05;16.47;;;12.13;;
6131;SDS011;3097;42.692;23.278;2022-10-20T02:53:31;14.83;;;11.37;;
6131;SDS011;3097;42.692;23.278;2022-10-20T02:55:57;14.93;;;11.43;;
6131;SDS011;3097;42.692;23.278;2022-10-20T02:58:23;15.17;;;11.30;;
6131;SDS011;3097;42.692;23.278;2022-10-20T03:00:49;16.17;;;11.00;;
6131;SDS011;3097;42.692;23.278;2022-10-20T03:03:15;15.83;;;11.63;;
6131;SDS011;3097;42.692;23.278;2022-10-20T03:05:41;16.30;;;11.73;;
6131;SDS011;3097;42.692;23.278;2022-10-20T03:08:08;17.90;;;11.63;;
6131;SDS011;3097;42.692;23.278;2022-10-20T03:10:35;18.93;;;12.87;;
6131;SDS011;3097;42.692;23.278;2022-10-20T03:13:01;24.33;;;16.47;;
6131;SDS011;3097;42.692;23.278;2022-10-20T03:15:28;17.90;;;12.93;;
6131;SDS011;3097;42.692;23.278;2022-10-20T03:17:53;17.47;;;12.27;;
6131;SDS011;3097;42.692;23.278;2022-10-20T03:20:19;21.37;;;12.53;;
6131;SDS011;3097;42.692;23.278;2022-10-20T03:22:44;17.30;;;11.73;;
6131;SDS011;3097;42.692;23.278;2022-10-20T03:25:09;19.40;;;11.50;;
6131;SDS011;3097;42.692;23.278;2022-10-20T03:27:35;16.27;;;11.27;;
6131;SDS011;3097;42.692;23.278;2022-10-20T03:30:00;16.00;;;11.50;;
6131;SDS011;3097;42.692;23.278;2022-10-20T03:32:26;17.83;;;11.73;;
6131;SDS011;3097;42.692;23.278;2022-10-20T03:34:51;17.53;;;11.43;;
6131;SDS011;3097;42.692;23.278;2022-10-20T03:37:16;15.37;;;11.27;;
6131;SDS011;3097;42.692;23.278;2022-10-20T03:39:42;14.73;;;11.07;;
6131;SDS011;3097;42.692;23.278;2022-10-20T03:42:07;18.50;;;12.20;;
6131;SDS011;3097;42.692;23.278;2022-10-20T03:44:33;18.57;;;11.70;;
6131;SDS011;3097;42.692;23.278;2022-10-20T03:47:02;16.67;;;11.50;;
6131;SDS011;3097;42.692;23.278;2022-10-20T03:49:28;17.40;;;11.70;;
6131;SDS011;3097;42.692;23.278;2022-10-20T03:51:55;15.50;;;11.33;;
6131;SDS011;3097;42.692;23.278;2022-10-20T03:54:21;14.77;;;11.53;;
6131;SDS011;3097;42.692;23.278;2022-10-20T03:56:46;16.00;;;11.27;;
6131;SDS011;3097;42.692;23.278;2022-10-20T03:59:12;15.43;;;11.57;;
6131;SDS011;3097;42.692;23.278;2022-10-20T04:01:37;18.00;;;12.20;;
6131;SDS011;3097;42.692;23.278;2022-10-20T04:04:02;18.43;;;10.77;;
6131;SDS011;3097;42.692;23.278;2022-10-20T04:06:28;17.40;;;11.63;;
6131;SDS011;3097;42.692;23.278;2022-10-20T04:08:53;14.47;;;10.53;;
6131;SDS011;3097;42.692;23.278;2022-10-20T04:11:19;17.37;;;11.87;;
6131;SDS011;3097;42.692;23.278;2022-10-20T04:13:44;19.60;;;13.30;;
6131;SDS011;3097;42.692;23.278;2022-10-20T04:16:10;26.57;;;14.90;;
6131;SDS011;3097;42.692;23.278;2022-10-20T04:18:36;22.40;;;13.10;;
6131;SDS011;3097;42.692;23.278;2022-10-20T04:21:02;32.70;;;19.00;;
6131;SDS011;3097;42.692;23.278;2022-10-20T04:23:28;22.83;;;14.77;;
6131;SDS011;3097;42.692;23.278;2022-10-20T04:25:53;15.67;;;12.10;;
6131;SDS011;3097;42.692;23.278;2022-10-20T04:28:19;23.10;;;15.20;;
6131;SDS011;3097;42.692;23.278;2022-10-20T04:30:45;32.03;;;17.53;;
6131;SDS011;3097;42.692;23.278;2022-10-20T04:33:12;19.27;;;13.17;;
6131;SDS011;3097;42.692;23.278;2022-10-20T04:35:38;18.93;;;12.40;;
6131;SDS011;3097;42.692;23.278;2022-10-20T04:38:04;16.20;;;11.70;;
6131;SDS011;3097;42.692;23.278;2022-10-20T04:40:29;18.03;;;11.03;;
6131;SDS011;3097;42.692;23.278;2022-10-20T04:42:55;17.47;;;12.20;;
6131;SDS011;3097;42.692;23.278;2022-10-20T04:45:23;18.07;;;12.30;;
6131;SDS011;3097;42.692;23.278;2022-10-20T04:47:49;17.17;;;11.70;;
6131;SDS011;3097;42.692;23.278;2022-10-20T04:50:14;18.83;;;12.30;;
6131;SDS011;3097;42.692;23.278;2022-10-20T04:52:40;19.77;;;13.00;;
6131;SDS011;3097;42.692;23.278;2022-10-20T04:55:05;19.40;;;13.47;;
6131;SDS011;3097;42.692;23.278;2022-10-20T04:57:31;24.53;;;14.77;;
6131;SDS011;3097;42.692;23.278;2022-10-20T04:59:57;26.33;;;14.77;;
6131;SDS011;3097;42.692;23.278;2022-10-20T05:02:22;27.83;;;15.13;;
6131;SDS011;3097;42.692;23.278;2022-10-20T05:04:48;23.73;;;14.70;;
6131;SDS011;3097;42.692;23.278;2022-10-20T05:07:14;23.00;;;14.43;;
6131;SDS011;3097;42.692;23.278;2022-10-20T05:09:39;21.17;;;14.30;;
6131;SDS011;3097;42.692;23.278;2022-10-20T05:12:05;18.87;;;12.90;;
6131;SDS011;3097;42.692;23.278;2022-10-20T05:14:30;21.10;;;12.97;;
6131;SDS011;3097;42.692;23.278;2022-10-20T05:16:56;18.30;;;12.20;;
6131;SDS011;3097;42.692;23.278;2022-10-20T05:19:22;17.90;;;12.37;;
6131;SDS011;3097;42.692;23.278;2022-10-20T05:21:47;21.70;;;13.07;;
6131;SDS011;3097;42.692;23.278;2022-10-20T05:24:13;21.13;;;14.83;;
6131;SDS011;3097;42.692;23.278;2022-10-20T05:26:41;21.63;;;13.40;;
6131;SDS011;3097;42.692;23.278;2022-10-20T05:29:07;19.13;;;12.30;;
6131;SDS011;3097;42.692;23.278;2022-10-20T05:31:37;21.27;;;12.87;;
6131;SDS011;3097;42.692;23.278;2022-10-20T05:34:04;15.77;;;11.00;;
6131;SDS011;3097;42.692;23.278;2022-10-20T05:36:30;18.13;;;12.27;;
6131;SDS011;3097;42.692;23.278;2022-10-20T05:38:55;17.07;;;11.57;;
6131;SDS011;3097;42.692;23.278;2022-10-20T05:41:22;18.37;;;11.93;;
6131;SDS011;3097;42.692;23.278;2022-10-20T05:43:52;17.43;;;11.97;;
6131;SDS011;3097;42.692;23.278;2022-10-20T05:46:21;18.37;;;12.57;;
6131;SDS011;3097;42.692;23.278;2022-10-20T05:48:47;17.97;;;12.87;;
6131;SDS011;3097;42.692;23.278;2022-10-20T05:51:17;19.10;;;12.37;;
6131;SDS011;3097;42.692;23.278;2022-10-20T05:53:44;18.47;;;12.30;;
6131;SDS011;3097;42.692;23.278;2022-10-20T05:56:15;21.17;;;12.90;;
6131;SDS011;3097;42.692;23.278;2022-10-20T05:58:42;70.07;;;37.37;;
6131;SDS011;3097;42.692;23.278;2022-10-20T06:01:15;59.30;;;33.13;;
6131;SDS011;3097;42.692;23.278;2022-10-20T06:03:47;39.70;;;23.23;;
6131;SDS011;3097;42.692;23.278;2022-10-20T06:06:21;26.20;;;16.00;;
6131;SDS011;3097;42.692;23.278;2022-10-20T06:08:47;28.53;;;16.07;;
6131;SDS011;3097;42.692;23.278;2022-10-20T06:11:15;54.60;;;30.10;;
6131;SDS011;3097;42.692;23.278;2022-10-20T06:13:41;56.73;;;30.20;;
6131;SDS011;3097;42.692;23.278;2022-10-20T06:16:11;60.73;;;32.67;;
6131;SDS011;3097;42.692;23.278;2022-10-20T06:18:38;41.20;;;25.80;;
6131;SDS011;3097;42.692;23.278;2022-10-20T06:21:05;37.97;;;22.87;;
6131;SDS011;3097;42.692;23.278;2022-10-20T06:23:34;30.07;;;17.97;;
6131;SDS011;3097;42.692;23.278;2022-10-20T06:26:03;25.17;;;15.67;;
6131;SDS011;3097;42.692;23.278;2022-10-20T06:28:33;23.27;;;15.30;;
6131;SDS011;3097;42.692;23.278;2022-10-20T06:31:02;27.17;;;15.90;;
6131;SDS011;3097;42.692;23.278;2022-10-20T06:33:34;27.73;;;16.40;;
6131;SDS011;3097;42.692;23.278;2022-10-20T06:36:00;27.37;;;15.53;;
6131;SDS011;3097;42.692;23.278;2022-10-20T06:38:25;24.03;;;15.50;;
6131;SDS011;3097;42.692;23.278;2022-10-20T06:40:51;20.20;;;13.50;;
6131;SDS011;3097;42.692;23.278;2022-10-20T06:43:17;21.33;;;13.23;;
6131;SDS011;3097;42.692;23.278;2022-10-20T06:45:42;22.83;;;13.67;;
6131;SDS011;3097;42.692;23.278;2022-10-20T06:48:07;20.93;;;13.80;;
6131;SDS011;3097;42.692;23.278;2022-10-20T06:50:33;19.27;;;13.23;;
6131;SDS011;3097;42.692;23.278;2022-10-20T06:52:59;20.70;;;12.87;;
6131;SDS011;3097;42.692;23.278;2022-10-20T06:55:24;18.63;;;13.00;;
6131;SDS011;3097;42.692;23.278;2022-10-20T06:57:49;23.27;;;15.00;;
6131;SDS011;3097;42.692;23.278;2022-10-20T07:00:15;17.07;;;12.70;;
6131;SDS011;3097;42.692;23.278;2022-10-20T07:02:40;16.33;;;11.73;;
6131;SDS011;3097;42.692;23.278;2022-10-20T07:05:06;15.33;;;11.10;;
6131;SDS011;3097;42.692;23.278;2022-10-20T07:07:31;12.70;;;10.23;;
6131;SDS011;3097;42.692;23.278;2022-10-20T07:09:57;14.17;;;10.60;;
6131;SDS011;3097;42.692;23.278;2022-10-20T07:12:23;11.87;;;10.00;;
6131;SDS011;3097;42.692;23.278;2022-10-20T07:14:48;13.50;;;9.93;;
6131;SDS011;3097;42.692;23.278;2022-10-20T07:17:13;15.77;;;11.27;;
6131;SDS011;3097;42.692;23.278;2022-10-20T07:19:39;12.50;;;10.50;;
6131;SDS011;3097;42.692;23.278;2022-10-20T07:22:04;12.93;;;10.97;;
6131;SDS011;3097;42.692;23.278;2022-10-20T07:24:30;15.17;;;10.40;;
6131;SDS011;3097;42.692;23.278;2022-10-20T07:26:55;14.53;;;11.13;;
6131;SDS011;3097;42.692;23.278;2022-10-20T07:29:21;15.30;;;12.07;;
6131;SDS011;3097;42.692;23.278;2022-10-20T07:31:47;15.63;;;10.80;;
6131;SDS011;3097;42.692;23.278;2022-10-20T07:34:13;16.63;;;11.30;;
6131;SDS011;3097;42.692;23.278;2022-10-20T07:36:41;17.37;;;11.67;;
6131;SDS011;3097;42.692;23.278;2022-10-20T07:39:09;15.40;;;11.77;;
6131;SDS011;3097;42.692;23.278;2022-10-20T07:41:35;14.40;;;11.37;;
6131;SDS011;3097;42.692;23.278;2022-10-20T07:44:01;16.13;;;11.90;;
6131;SDS011;3097;42.692;23.278;2022-10-20T07:46:27;11.93;;;9.70;;
6131;SDS011;3097;42.692;23.278;2022-10-20T07:48:52;14.33;;;10.57;;
6131;SDS011;3097;42.692;23.278;2022-10-20T07:53:50;16.10;;;11.63;;
6131;SDS011;3097;42.692;23.278;2022-10-20T07:56:19;17.60;;;11.87;;
6131;SDS011;3097;42.692;23.278;2022-10-20T07:58:46;13.17;;;9.73;;
6131;SDS011;3097;42.692;23.278;2022-10-20T08:01:11;13.57;;;10.90;;
6131;SDS011;3097;42.692;23.278;2022-10-20T08:03:37;12.07;;;10.27;;
6131;SDS011;3097;42.692;23.278;2022-10-20T08:06:03;13.33;;;10.90;;
6131;SDS011;3097;42.692;23.278;2022-10-20T08:08:32;11.17;;;9.60;;
6131;SDS011;3097;42.692;23.278;2022-10-20T08:10:58;13.27;;;9.60;;
6131;SDS011;3097;42.692;23.278;2022-10-20T08:13:24;11.87;;;9.60;;
6131;SDS011;3097;42.692;23.278;2022-10-20T08:15:50;11.30;;;9.60;;
6131;SDS011;3097;42.692;23.278;2022-10-20T08:18:16;10.03;;;8.77;;
6131;SDS011;3097;42.692;23.278;2022-10-20T08:20:41;13.13;;;8.83;;
6131;SDS011;3097;42.692;23.278;2022-10-20T08:23:07;9.53;;;8.10;;
6131;SDS011;3097;42.692;23.278;2022-10-20T08:25:32;13.57;;;8.40;;
6131;SDS011;3097;42.692;23.278;2022-10-20T08:27:58;9.43;;;8.43;;
6131;SDS011;3097;42.692;23.278;2022-10-20T08:30:24;8.90;;;7.63;;
6131;SDS011;3097;42.692;23.278;2022-10-20T08:32:52;8.97;;;7.70;;
6131;SDS011;3097;42.692;23.278;2022-10-20T08:35:18;9.47;;;8.47;;
6131;SDS011;3097;42.692;23.278;2022-10-20T08:37:45;8.67;;;7.87;;
6131;SDS011;3097;42.692;23.278;2022-10-20T08:40:15;7.77;;;7.07;;
6131;SDS011;3097;42.692;23.278;2022-10-20T08:42:43;9.93;;;8.17;;
6131;SDS011;3097;42.692;23.278;2022-10-20T08:45:12;9.10;;;7.57;;
6131;SDS011;3097;42.692;23.278;2022-10-20T08:47:40;7.87;;;7.07;;
6131;SDS011;3097;42.692;23.278;2022-10-20T08:50:07;8.03;;;7.23;;
6131;SDS011;3097;42.692;23.278;2022-10-20T08:52:37;7.50;;;6.90;;
6131;SDS011;3097;42.692;23.278;2022-10-20T08:55:04;7.27;;;6.53;;
6131;SDS011;3097;42.692;23.278;2022-10-20T08:57:30;8.50;;;7.63;;
6131;SDS011;3097;42.692;23.278;2022-10-20T09:00:16;9.70;;;6.80;;
6131;SDS011;3097;42.692;23.278;2022-10-20T09:02:47;7.53;;;6.73;;
6131;SDS011;3097;42.692;23.278;2022-10-20T09:05:14;6.60;;;6.00;;
6131;SDS011;3097;42.692;23.278;2022-10-20T09:07:43;5.70;;;5.27;;
6131;SDS011;3097;42.692;23.278;2022-10-20T09:12:41;5.80;;;5.10;;
6131;SDS011;3097;42.692;23.278;2022-10-20T09:15:12;5.60;;;5.10;;
6131;SDS011;3097;42.692;23.278;2022-10-20T09:17:40;5.50;;;5.10;;
6131;SDS011;3097;42.692;23.278;2022-10-20T09:20:20;5.77;;;5.37;;
6131;SDS011;3097;42.692;23.278;2022-10-20T09:22:48;5.33;;;4.93;;
6131;SDS011;3097;42.692;23.278;2022-10-20T09:25:15;5.33;;;4.90;;
6131;SDS011;3097;42.692;23.278;2022-10-20T09:27:43;4.77;;;4.37;;
6131;SDS011;3097;42.692;23.278;2022-10-20T09:30:17;4.77;;;4.37;;
6131;SDS011;3097;42.692;23.278;2022-10-20T09:32:43;4.70;;;4.40;;
6131;SDS011;3097;42.692;23.278;2022-10-20T09:41:20;5.97;;;4.87;;
6131;SDS011;3097;42.692;23.278;2022-10-20T09:46:20;6.13;;;5.63;;
6131;SDS011;3097;42.692;23.278;2022-10-20T09:48:49;5.17;;;4.87;;
6131;SDS011;3097;42.692;23.278;2022-10-20T09:51:22;5.37;;;4.87;;
6131;SDS011;3097;42.692;23.278;2022-10-20T09:54:13;6.03;;;5.30;;
6131;SDS011;3097;42.692;23.278;2022-10-20T09:56:42;5.83;;;5.33;;
6131;SDS011;3097;42.692;23.278;2022-10-20T09:59:31;12.93;;;5.60;;
6131;SDS011;3097;42.692;23.278;2022-10-20T10:02:00;5.67;;;4.93;;
6131;SDS011;3097;42.692;23.278;2022-10-20T10:04:35;5.43;;;4.93;;
6131;SDS011;3097;42.692;23.278;2022-10-20T10:07:03;5.20;;;4.83;;
6131;SDS011;3097;42.692;23.278;2022-10-20T10:09:31;5.00;;;4.60;;
6131;SDS011;3097;42.692;23.278;2022-10-20T10:12:03;5.27;;;4.77;;
6131;SDS011;3097;42.692;23.278;2022-10-20T10:15:00;5.27;;;4.77;;
6131;SDS011;3097;42.692;23.278;2022-10-20T10:17:42;5.27;;;4.70;;
6131;SDS011;3097;42.692;23.278;2022-10-20T10:22:37;5.43;;;5.03;;
6131;SDS011;3097;42.692;23.278;2022-10-20T10:25:04;5.43;;;5.00;;
6131;SDS011;3097;42.692;23.278;2022-10-20T10:27:34;5.90;;;5.43;;
6131;SDS011;3097;42.692;23.278;2022-10-20T10:32:44;4.83;;;4.53;;
6131;SDS011;3097;42.692;23.278;2022-10-20T10:35:16;5.20;;;4.80;;
6131;SDS011;3097;42.692;23.278;2022-10-20T10:37:49;5.50;;;5.07;;
6131;SDS011;3097;42.692;23.278;2022-10-20T10:40:17;5.10;;;4.70;;
6131;SDS011;3097;42.692;23.278;2022-10-20T10:43:04;5.57;;;5.17;;
6131;SDS011;3097;42.692;23.278;2022-10-20T10:46:06;5.47;;;5.00;;
6131;SDS011;3097;42.692;23.278;2022-10-20T10:54:13;7.33;;;6.10;;
6131;SDS011;3097;42.692;23.278;2022-10-20T10:56:46;12.97;;;8.47;;
6131;SDS011;3097;42.692;23.278;2022-10-20T10:59:26;6.40;;;5.90;;
6131;SDS011;3097;42.692;23.278;2022-10-20T11:04:47;6.20;;;5.50;;
6131;SDS011;3097;42.692;23.278;2022-10-20T11:26:48;7.60;;;4.57;;
6131;SDS011;3097;42.692;23.278;2022-10-20T11:37:37;5.00;;;4.60;;
6131;SDS011;3097;42.692;23.278;2022-10-20T11:42:42;6.67;;;5.97;;
6131;SDS011;3097;42.692;23.278;2022-10-20T11:45:27;5.67;;;5.27;;
6131;SDS011;3097;42.692;23.278;2022-10-20T11:48:13;5.13;;;4.67;;
6131;SDS011;3097;42.692;23.278;2022-10-20T11:50:41;4.73;;;4.43;;
6131;SDS011;3097;42.692;23.278;2022-10-20T11:53:28;4.90;;;4.50;;
6131;SDS011;3097;42.692;23.278;2022-10-20T12:12:46;5.23;;;4.83;;
6131;SDS011;3097;42.692;23.278;2022-10-20T12:15:21;5.20;;;4.70;;
6131;SDS011;3097;42.692;23.278;2022-10-20T12:17:49;5.60;;;5.10;;
6131;SDS011;3097;42.692;23.278;2022-10-20T12:22:44;6.03;;;4.37;;
6131;SDS011;3097;42.692;23.278;2022-10-20T12:30:55;4.70;;;4.30;;
6131;SDS011;3097;42.692;23.278;2022-10-20T12:36:22;4.93;;;4.53;;
6131;SDS011;3097;42.692;23.278;2022-10-20T12:39:14;6.13;;;4.23;;
6131;SDS011;3097;42.692;23.278;2022-10-20T12:41:45;5.83;;;5.33;;
6131;SDS011;3097;42.692;23.278;2022-10-20T12:44:20;5.50;;;5.00;;
6131;SDS011;3097;42.692;23.278;2022-10-20T12:46:51;5.17;;;4.77;;
6131;SDS011;3097;42.692;23.278;2022-10-20T12:49:30;6.53;;;4.77;;
6131;SDS011;3097;42.692;23.278;2022-10-20T12:51:58;5.07;;;4.77;;
6131;SDS011;3097;42.692;23.278;2022-10-20T12:56:56;5.53;;;4.80;;
6131;SDS011;3097;42.692;23.278;2022-10-20T13:10:44;5.20;;;4.80;;
6131;SDS011;3097;42.692;23.278;2022-10-20T13:21:00;4.77;;;4.47;;
6131;SDS011;3097;42.692;23.278;2022-10-20T13:23:33;4.30;;;3.93;;
6131;SDS011;3097;42.692;23.278;2022-10-20T13:26:14;4.50;;;4.20;;
6131;SDS011;3097;42.692;23.278;2022-10-20T13:28:43;4.70;;;4.40;;
6131;SDS011;3097;42.692;23.278;2022-10-20T13:31:35;5.17;;;3.67;;
6131;SDS011;3097;42.692;23.278;2022-10-20T13:37:15;4.37;;;3.97;;
6131;SDS011;3097;42.692;23.278;2022-10-20T13:42:57;4.03;;;3.70;;
6131;SDS011;3097;42.692;23.278;2022-10-20T13:48:17;3.90;;;3.60;;
6131;SDS011;3097;42.692;23.278;2022-10-20T13:50:52;3.80;;;3.50;;
6131;SDS011;3097;42.692;23.278;2022-10-20T13:53:31;3.80;;;3.50;;
6131;SDS011;3097;42.692;23.278;2022-10-20T13:56:05;4.07;;;3.73;;
6131;SDS011;3097;42.692;23.278;2022-10-20T13:58:32;4.33;;;4.03;;
6131;SDS011;3097;42.692;23.278;2022-10-20T14:01:03;4.50;;;4.10;;
6131;SDS011;3097;42.692;23.278;2022-10-20T14:03:47;4.03;;;3.50;;
6131;SDS011;3097;42.692;23.278;2022-10-20T14:06:55;4.27;;;3.97;;
6131;SDS011;3097;42.692;23.278;2022-10-20T14:09:14;3.93;;;3.43;;
6131;SDS011;3097;42.692;23.278;2022-10-20T14:11:42;4.50;;;4.10;;
6131;SDS011;3097;42.692;23.278;2022-10-20T14:14:15;4.60;;;3.40;;
6131;SDS011;3097;42.692;23.278;2022-10-20T14:16:51;3.90;;;3.60;;
6131;SDS011;3097;42.692;23.278;2022-10-20T14:19:20;4.50;;;4.10;;
6131;SDS011;3097;42.692;23.278;2022-10-20T14:21:50;7.30;;;4.53;;
6131;SDS011;3097;42.692;23.278;2022-10-20T14:24:18;4.00;;;3.70;;
6131;SDS011;3097;42.692;23.278;2022-10-20T14:26:50;4.70;;;3.90;;
6131;SDS011;3097;42.692;23.278;2022-10-20T14:29:16;4.50;;;4.20;;
6131;SDS011;3097;42.692;23.278;2022-10-20T14:31:44;4.43;;;3.77;;
6131;SDS011;3097;42.692;23.278;2022-10-20T14:34:19;5.97;;;3.90;;
6131;SDS011;3097;42.692;23.278;2022-10-20T14:36:48;9.43;;;4.40;;
6131;SDS011;3097;42.692;23.278;2022-10-20T14:39:26;5.67;;;4.70;;
6131;SDS011;3097;42.692;23.278;2022-10-20T14:42:00;5.77;;;4.77;;
6131;SDS011;3097;42.692;23.278;2022-10-20T14:44:28;5.20;;;4.70;;
6131;SDS011;3097;42.692;23.278;2022-10-20T14:46:55;5.13;;;4.70;;
6131;SDS011;3097;42.692;23.278;2022-10-20T14:49:27;4.60;;;4.20;;
6131;SDS011;3097;42.692;23.278;2022-10-20T14:52:03;7.60;;;5.23;;
6131;SDS011;3097;42.692;23.278;2022-10-20T14:54:43;5.37;;;4.90;;
6131;SDS011;3097;42.692;23.278;2022-10-20T15:02:16;7.87;;;5.07;;
6131;SDS011;3097;42.692;23.278;2022-10-20T15:04:48;6.77;;;5.40;;
6131;SDS011;3097;42.692;23.278;2022-10-20T15:09:47;9.50;;;6.00;;
6131;SDS011;3097;42.692;23.278;2022-10-20T15:12:18;8.03;;;6.30;;
6131;SDS011;3097;42.692;23.278;2022-10-20T15:14:47;7.43;;;5.83;;
6131;SDS011;3097;42.692;23.278;2022-10-20T15:22:49;8.93;;;7.33;;
6131;SDS011;3097;42.692;23.278;2022-10-20T15:25:15;10.47;;;7.30;;
6131;SDS011;3097;42.692;23.278;2022-10-20T15:27:40;13.53;;;7.70;;
6131;SDS011;3097;42.692;23.278;2022-10-20T15:30:15;13.40;;;8.00;;
6131;SDS011;3097;42.692;23.278;2022-10-20T15:32:41;10.13;;;8.67;;
6131;SDS011;3097;42.692;23.278;2022-10-20T15:35:12;13.23;;;8.47;;
6131;SDS011;3097;42.692;23.278;2022-10-20T15:37:41;13.13;;;8.70;;
6131;SDS011;3097;42.692;23.278;2022-10-20T15:40:06;11.30;;;8.77;;
6131;SDS011;3097;42.692;23.278;2022-10-20T15:42:32;9.07;;;7.70;;
6131;SDS011;3097;42.692;23.278;2022-10-20T15:44:58;7.40;;;6.50;;
6131;SDS011;3097;42.692;23.278;2022-10-20T15:47:23;7.03;;;6.30;;
6131;SDS011;3097;42.692;23.278;2022-10-20T15:49:49;9.53;;;6.70;;
6131;SDS011;3097;42.692;23.278;2022-10-20T15:52:14;7.87;;;6.80;;
6131;SDS011;3097;42.692;23.278;2022-10-20T15:54:41;9.57;;;7.90;;
6131;SDS011;3097;42.692;23.278;2022-10-20T15:57:07;7.90;;;7.10;;
6131;SDS011;3097;42.692;23.278;2022-10-20T15:59:33;9.37;;;7.70;;
6131;SDS011;3097;42.692;23.278;2022-10-20T16:01:58;10.30;;;7.70;;
6131;SDS011;3097;42.692;23.278;2022-10-20T16:04:24;14.37;;;9.33;;
6131;SDS011;3097;42.692;23.278;2022-10-20T16:06:53;16.20;;;10.20;;
6131;SDS011;3097;42.692;23.278;2022-10-20T16:09:20;18.70;;;11.43;;
6131;SDS011;3097;42.692;23.278;2022-10-20T16:11:46;22.17;;;13.00;;
6131;SDS011;3097;42.692;23.278;2022-10-20T16:14:12;21.07;;;12.93;;
6131;SDS011;3097;42.692;23.278;2022-10-20T16:16:39;22.07;;;13.20;;
6131;SDS011;3097;42.692;23.278;2022-10-20T16:19:06;23.33;;;13.13;;
6131;SDS011;3097;42.692;23.278;2022-10-20T16:21:32;28.97;;;16.67;;
6131;SDS011;3097;42.692;23.278;2022-10-20T16:23:58;26.50;;;15.43;;
6131;SDS011;3097;42.692;23.278;2022-10-20T16:26:25;23.07;;;13.80;;
6131;SDS011;3097;42.692;23.278;2022-10-20T16:28:51;24.53;;;13.83;;
6131;SDS011;3097;42.692;23.278;2022-10-20T16:31:17;24.00;;;14.07;;
6131;SDS011;3097;42.692;23.278;2022-10-20T16:33:43;32.73;;;17.20;;
6131;SDS011;3097;42.692;23.278;2022-10-20T16:36:10;29.73;;;17.23;;
6131;SDS011;3097;42.692;23.278;2022-10-20T16:38:38;26.83;;;15.37;;
6131;SDS011;3097;42.692;23.278;2022-10-20T16:41:05;28.60;;;16.13;;
6131;SDS011;3097;42.692;23.278;2022-10-20T16:43:39;28.53;;;15.63;;
6131;SDS011;3097;42.692;23.278;2022-10-20T16:46:06;29.27;;;15.90;;
6131;SDS011;3097;42.692;23.278;2022-10-20T16:48:33;33.90;;;19.27;;
6131;SDS011;3097;42.692;23.278;2022-10-20T16:50:59;40.90;;;21.20;;
6131;SDS011;3097;42.692;23.278;2022-10-20T16:53:24;49.33;;;26.43;;
6131;SDS011;3097;42.692;23.278;2022-10-20T16:55:51;46.63;;;24.07;;
6131;SDS011;3097;42.692;23.278;2022-10-20T16:58:18;34.13;;;19.50;;
6131;SDS011;3097;42.692;23.278;2022-10-20T17:00:43;31.63;;;18.23;;
6131;SDS011;3097;42.692;23.278;2022-10-20T17:03:09;19.83;;;10.70;;
6131;SDS011;3097;42.692;23.278;2022-10-20T17:05:34;21.90;;;12.23;;
6131;SDS011;3097;42.692;23.278;2022-10-20T17:08:00;24.47;;;13.00;;
6131;SDS011;3097;42.692;23.278;2022-10-20T17:10:25;26.50;;;13.33;;
6131;SDS011;3097;42.692;23.278;2022-10-20T17:12:51;17.60;;;10.80;;
6131;SDS011;3097;42.692;23.278;2022-10-20T17:15:16;17.10;;;9.80;;
6131;SDS011;3097;42.692;23.278;2022-10-20T17:17:42;13.37;;;9.70;;
6131;SDS011;3097;42.692;23.278;2022-10-20T17:20:07;17.97;;;10.83;;
6131;SDS011;3097;42.692;23.278;2022-10-20T17:22:33;14.57;;;9.77;;
6131;SDS011;3097;42.692;23.278;2022-10-20T17:24:59;13.63;;;9.60;;
6131;SDS011;3097;42.692;23.278;2022-10-20T17:27:24;13.90;;;9.27;;
6131;SDS011;3097;42.692;23.278;2022-10-20T17:29:50;19.50;;;10.87;;